createdAt,value
2023-01-20T00:01:09.726Z,14.60
2023-01-20T00:03:36.840Z,13.90
2023-01-20T00:06:03.600Z,13.30
2023-01-20T00:08:30.360Z,13.90
2023-01-20T00:10:57.175Z,12.95
2023-01-20T00:13:24.099Z,13.60
2023-01-20T00:15:50.734Z,13.63
2023-01-20T00:18:17.329Z,13.63
2023-01-20T00:20:43.996Z,13.63
2023-01-20T00:23:10.734Z,13.68
2023-01-20T00:25:52.576Z,14.48
2023-01-20T00:28:19.231Z,13.57
2023-01-20T00:30:45.929Z,12.48
2023-01-20T00:33:12.565Z,14.00
2023-01-20T00:35:39.662Z,14.25
2023-01-20T00:38:06.338Z,16.27
2023-01-20T00:40:33.021Z,13.68
2023-01-20T00:42:59.635Z,13.80
2023-01-20T00:45:26.282Z,16.00
2023-01-20T00:47:52.891Z,15.48
2023-01-20T00:50:19.540Z,13.30
2023-01-20T00:52:46.151Z,13.10
2023-01-20T00:55:13.149Z,14.27
2023-01-20T00:57:39.977Z,15.18
2023-01-20T01:00:07.074Z,14.35
2023-01-20T01:02:39.169Z,15.10
2023-01-20T01:05:06.348Z,12.95
2023-01-20T01:07:32.986Z,12.38
2023-01-20T01:09:59.624Z,14.27
2023-01-20T01:12:26.328Z,12.57
2023-01-20T01:14:52.992Z,13.50
2023-01-20T01:17:19.726Z,12.70
2023-01-20T01:19:46.347Z,13.35
2023-01-20T01:22:12.955Z,13.65
2023-01-20T01:24:39.647Z,12.75
2023-01-20T01:27:07.268Z,13.80
2023-01-20T01:29:33.915Z,14.60
2023-01-20T01:32:00.593Z,13.82
2023-01-20T01:34:27.314Z,13.15
2023-01-20T01:36:54.046Z,13.35
2023-01-20T01:39:20.644Z,14.10
2023-01-20T01:41:47.282Z,13.90
2023-01-20T01:44:14.522Z,13.80
2023-01-20T01:46:42.357Z,13.05
2023-01-20T01:49:11.907Z,12.15
2023-01-20T01:51:44.513Z,12.73
2023-01-20T01:54:23.543Z,13.40
2023-01-20T01:56:51.076Z,13.55
2023-01-20T01:59:19.695Z,12.52
2023-01-20T02:01:51.088Z,14.38
2023-01-20T02:04:24.202Z,13.65
2023-01-20T02:07:14.250Z,12.25
2023-01-20T02:09:41.339Z,13.65
2023-01-20T02:12:12.947Z,13.00
2023-01-20T02:15:01.762Z,13.93
2023-01-20T02:18:01.364Z,12.65
2023-01-20T02:20:34.666Z,12.65
2023-01-20T02:23:30.938Z,12.75
2023-01-20T02:26:12.913Z,13.43
2023-01-20T02:29:08.130Z,12.18
2023-01-20T02:32:02.091Z,12.27
2023-01-20T02:34:46.802Z,11.73
2023-01-20T02:37:25.234Z,13.35
2023-01-20T02:40:14.589Z,12.20
2023-01-20T02:43:19.558Z,13.45
2023-01-20T02:45:53.351Z,13.52
2023-01-20T02:48:44.168Z,12.55
2023-01-20T02:51:16.592Z,13.52
2023-01-20T02:53:56.646Z,12.88
2023-01-20T02:56:27.734Z,12.77
2023-01-20T02:59:03.095Z,13.98
2023-01-20T03:01:38.141Z,13.13
2023-01-20T03:04:07.489Z,12.80
2023-01-20T03:06:39.159Z,13.13
2023-01-20T03:09:10.161Z,13.40
2023-01-20T03:11:41.279Z,12.98
2023-01-20T03:14:12.321Z,12.55
2023-01-20T03:16:39.798Z,12.60
2023-01-20T03:19:06.693Z,12.45
2023-01-20T03:21:34.912Z,11.80
2023-01-20T03:24:04.236Z,13.00
2023-01-20T03:26:31.280Z,12.25
2023-01-20T03:28:59.025Z,13.07
2023-01-20T03:31:28.062Z,11.90
2023-01-20T03:33:58.099Z,13.00
2023-01-20T03:36:27.923Z,11.50
2023-01-20T03:38:56.377Z,11.50
2023-01-20T03:41:34.737Z,11.93
2023-01-20T03:44:20.900Z,13.25
2023-01-20T03:47:08.611Z,12.20
2023-01-20T03:49:46.011Z,12.23
2023-01-20T03:52:46.930Z,12.05
2023-01-20T03:55:23.989Z,12.82
2023-01-20T03:58:04.800Z,12.65
2023-01-20T04:00:34.696Z,12.27
2023-01-20T04:03:07.408Z,11.95
2023-01-20T04:05:34.834Z,12.07
2023-01-20T04:08:06.025Z,12.00
2023-01-20T04:10:36.872Z,11.70
2023-01-20T04:13:03.686Z,11.40
2023-01-20T04:15:36.431Z,12.35
2023-01-20T04:18:21.210Z,12.35
2023-01-20T04:20:53.116Z,11.77
2023-01-20T04:23:29.563Z,14.02
2023-01-20T04:25:56.196Z,14.20
2023-01-20T04:28:22.911Z,13.85
2023-01-20T04:30:49.675Z,11.52
2023-01-20T04:33:16.439Z,12.00
2023-01-20T04:35:43.089Z,14.32
2023-01-20T04:38:09.798Z,13.88
2023-01-20T04:40:36.513Z,12.73
2023-01-20T04:43:03.199Z,12.18
2023-01-20T04:45:29.897Z,13.15
2023-01-20T04:47:56.557Z,11.95
2023-01-20T04:50:23.238Z,12.35
2023-01-20T04:52:49.923Z,12.13
2023-01-20T04:55:16.984Z,12.63
2023-01-20T04:57:43.866Z,12.02
2023-01-20T05:00:11.854Z,11.65
2023-01-20T05:02:38.553Z,11.85
2023-01-20T05:05:05.448Z,12.48
2023-01-20T05:07:32.170Z,11.88
2023-01-20T05:09:58.866Z,12.80
2023-01-20T05:12:25.480Z,12.70
2023-01-20T05:14:52.379Z,12.55
2023-01-20T05:17:19.056Z,12.07
2023-01-20T05:19:45.790Z,12.27
2023-01-20T05:22:12.460Z,11.20
2023-01-20T05:24:39.097Z,12.80
2023-01-20T05:27:05.725Z,10.82
2023-01-20T05:29:32.711Z,12.15
2023-01-20T05:31:59.339Z,13.77
2023-01-20T05:34:25.986Z,13.63
2023-01-20T05:36:54.012Z,12.45
2023-01-20T05:39:21.280Z,13.55
2023-01-20T05:41:48.598Z,15.60
2023-01-20T05:44:16.179Z,14.32
2023-01-20T05:46:42.910Z,12.95
2023-01-20T05:49:11.821Z,11.82
2023-01-20T05:51:38.769Z,12.43
2023-01-20T05:54:05.660Z,13.25
2023-01-20T05:56:32.362Z,12.27
2023-01-20T05:58:59.259Z,12.00
2023-01-20T06:01:26.127Z,12.18
2023-01-20T06:03:52.806Z,12.63
2023-01-20T06:06:19.482Z,12.15
2023-01-20T06:08:46.555Z,12.00
2023-01-20T06:11:14.431Z,12.70
2023-01-20T06:13:41.138Z,13.05
2023-01-20T06:16:07.953Z,12.50
2023-01-20T06:18:35.037Z,12.60
2023-01-20T06:21:01.759Z,12.50
2023-01-20T06:23:28.503Z,12.52
2023-01-20T06:26:01.865Z,12.20
2023-01-20T06:28:28.907Z,12.55
2023-01-20T06:31:05.918Z,13.02
2023-01-20T06:33:33.425Z,12.45
2023-01-20T06:36:00.462Z,13.60
2023-01-20T06:38:30.520Z,11.70
2023-01-20T06:41:02.590Z,13.55
2023-01-20T06:43:30.944Z,12.50
2023-01-20T06:46:06.069Z,14.65
2023-01-20T06:48:33.349Z,14.20
2023-01-20T06:51:09.703Z,12.07
2023-01-20T06:53:36.391Z,12.70
2023-01-20T06:56:03.100Z,12.85
2023-01-20T06:58:31.932Z,13.35
2023-01-20T07:01:04.577Z,13.57
2023-01-20T07:03:31.384Z,13.55
2023-01-20T07:06:04.900Z,12.38
2023-01-20T07:08:31.978Z,11.85
2023-01-20T07:10:58.679Z,12.85
2023-01-20T07:13:25.325Z,12.55
2023-01-20T07:15:52.603Z,13.52
2023-01-20T07:18:19.223Z,13.25
2023-01-20T07:20:45.869Z,12.38
2023-01-20T07:23:12.507Z,12.20
2023-01-20T07:25:39.531Z,13.73
2023-01-20T07:28:06.187Z,12.65
2023-01-20T07:30:32.883Z,13.27
2023-01-20T07:32:59.505Z,11.52
2023-01-20T07:35:26.130Z,12.07
2023-01-20T07:37:52.769Z,12.25
2023-01-20T07:40:19.471Z,13.35
2023-01-20T07:42:46.169Z,12.57
2023-01-20T07:45:13.020Z,13.63
2023-01-20T07:47:39.935Z,13.00
2023-01-20T07:50:06.822Z,12.75
2023-01-20T07:52:34.819Z,12.95
2023-01-20T07:55:01.494Z,13.00
2023-01-20T07:57:30.174Z,12.30
2023-01-20T07:59:56.965Z,12.68
2023-01-20T08:02:23.673Z,12.30
2023-01-20T08:04:50.431Z,12.57
2023-01-20T08:07:17.136Z,13.88
2023-01-20T08:09:43.992Z,12.75
2023-01-20T08:12:10.644Z,12.30
2023-01-20T08:14:37.921Z,13.55
2023-01-20T08:17:04.692Z,13.98
2023-01-20T08:19:31.343Z,12.35
2023-01-20T08:21:58.103Z,12.20
2023-01-20T08:24:24.728Z,12.13
2023-01-20T08:26:51.798Z,12.30
2023-01-20T08:29:18.437Z,13.30
2023-01-20T08:31:45.429Z,11.93
2023-01-20T08:34:12.329Z,13.00
2023-01-20T08:36:40.706Z,13.30
2023-01-20T08:39:09.524Z,12.35
2023-01-20T08:41:38.823Z,12.73
2023-01-20T08:44:07.552Z,13.18
2023-01-20T08:46:34.756Z,12.90
2023-01-20T08:49:01.450Z,12.80
2023-01-20T08:51:32.428Z,11.60
2023-01-20T08:53:59.206Z,12.38
2023-01-20T08:56:26.230Z,13.00
2023-01-20T08:58:54.000Z,13.00
2023-01-20T09:01:23.480Z,13.45
2023-01-20T09:04:04.315Z,12.85
2023-01-20T09:06:36.575Z,12.60
2023-01-20T09:09:04.579Z,12.45
2023-01-20T09:11:31.602Z,11.32
2023-01-20T09:13:58.320Z,10.90
2023-01-20T09:16:25.025Z,11.60
2023-01-20T09:18:51.660Z,10.90
2023-01-20T09:21:18.299Z,11.07
2023-01-20T09:23:47.830Z,10.65
2023-01-20T09:26:29.572Z,11.52
2023-01-20T09:29:08.846Z,11.68
2023-01-20T09:31:40.808Z,12.25
2023-01-20T09:34:08.067Z,10.93
2023-01-20T09:36:34.718Z,12.05
2023-01-20T09:39:19.968Z,11.43
2023-01-20T09:42:09.013Z,10.93
2023-01-20T09:44:55.783Z,11.45
2023-01-20T09:47:31.543Z,10.93
2023-01-20T09:50:21.978Z,11.77
2023-01-20T09:53:07.993Z,10.30
2023-01-20T09:55:53.715Z,10.73
2023-01-20T09:58:44.668Z,10.35
2023-01-20T10:01:18.419Z,11.27
2023-01-20T10:03:56.433Z,10.70
2023-01-20T10:06:29.243Z,11.82
2023-01-20T10:09:06.234Z,11.10
2023-01-20T10:11:39.333Z,12.57
2023-01-20T10:14:22.849Z,12.55
2023-01-20T10:17:09.662Z,11.75
2023-01-20T10:19:54.473Z,11.75
2023-01-20T10:22:29.118Z,11.45
2023-01-20T10:25:13.261Z,13.50
2023-01-20T10:27:46.771Z,13.85
2023-01-20T10:30:15.383Z,14.30
2023-01-20T10:33:11.301Z,12.95
2023-01-20T10:35:50.801Z,13.15
2023-01-20T10:38:36.400Z,11.63
2023-01-20T10:41:14.762Z,9.98
2023-01-20T10:43:42.848Z,12.00
2023-01-20T10:46:51.817Z,10.30
2023-01-20T10:49:56.113Z,10.75
2023-01-20T10:53:04.950Z,10.32
2023-01-20T10:55:40.638Z,10.27
2023-01-20T10:58:27.509Z,11.05
2023-01-20T11:00:55.276Z,11.10
2023-01-20T11:03:23.139Z,11.43
2023-01-20T11:05:51.756Z,10.27
2023-01-20T11:08:28.656Z,10.60
2023-01-20T11:10:59.234Z,10.32
2023-01-20T11:13:25.947Z,11.25
2023-01-20T11:16:00.875Z,11.20
2023-01-20T11:18:30.467Z,11.75
2023-01-20T11:21:07.398Z,11.55
2023-01-20T11:23:41.808Z,10.13
2023-01-20T11:26:20.463Z,10.77
2023-01-20T11:28:56.077Z,9.95
2023-01-20T11:31:36.508Z,9.32
2023-01-20T11:34:21.075Z,10.23
2023-01-20T11:36:47.974Z,9.95
2023-01-20T11:39:31.305Z,9.93
2023-01-20T11:42:21.300Z,10.13
2023-01-20T11:44:55.002Z,10.52
2023-01-20T11:47:22.528Z,10.02
2023-01-20T11:50:04.470Z,9.57
2023-01-20T11:52:33.930Z,9.77
2023-01-20T11:55:15.442Z,10.32
2023-01-20T11:58:02.329Z,10.88
2023-01-20T12:00:42.551Z,10.35
2023-01-20T12:03:33.828Z,10.95
2023-01-20T12:06:03.618Z,10.93
2023-01-20T12:09:06.570Z,10.38
2023-01-20T12:11:44.725Z,11.00
2023-01-20T12:14:34.410Z,11.15
2023-01-20T12:17:19.184Z,10.43
2023-01-20T12:20:10.397Z,11.25
2023-01-20T12:23:11.118Z,10.75
2023-01-20T12:25:48.719Z,10.07
2023-01-20T12:28:41.358Z,10.90
2023-01-20T12:31:11.063Z,11.05
2023-01-20T12:33:43.053Z,11.70
2023-01-20T12:36:37.447Z,11.85
2023-01-20T12:39:29.060Z,10.50
2023-01-20T12:42:10.964Z,11.45
2023-01-20T12:45:11.436Z,11.40
2023-01-20T12:47:53.013Z,10.70
2023-01-20T12:50:47.543Z,11.48
2023-01-20T12:53:24.814Z,10.85
2023-01-20T12:56:25.938Z,10.90
2023-01-20T12:59:23.003Z,11.70
2023-01-20T13:01:52.626Z,10.20
2023-01-20T13:04:47.234Z,9.02
2023-01-20T13:07:36.706Z,9.63
2023-01-20T13:10:29.408Z,10.18
2023-01-20T13:12:59.211Z,9.98
2023-01-20T13:15:41.191Z,9.25
2023-01-20T13:18:34.833Z,9.40
2023-01-20T13:21:01.473Z,9.07
2023-01-20T13:23:33.262Z,9.25
2023-01-20T13:26:01.702Z,9.48
2023-01-20T13:28:30.150Z,10.20
2023-01-20T13:31:01.585Z,10.23
2023-01-20T13:33:28.268Z,9.30
2023-01-20T13:35:55.798Z,9.57
2023-01-20T13:38:35.181Z,8.98
2023-01-20T13:41:05.655Z,9.30
2023-01-20T13:43:32.244Z,9.38
2023-01-20T13:46:04.936Z,9.30
2023-01-20T13:48:34.168Z,8.85
2023-01-20T13:51:16.031Z,7.90
2023-01-20T13:53:43.672Z,8.57
2023-01-20T13:56:28.160Z,9.07
2023-01-20T13:58:55.944Z,8.60
2023-01-20T14:01:22.618Z,8.27
2023-01-20T14:04:06.262Z,8.45
2023-01-20T14:06:35.594Z,8.63
2023-01-20T14:09:03.150Z,8.07
2023-01-20T14:11:31.303Z,8.20
2023-01-20T14:14:03.070Z,7.63
2023-01-20T14:16:41.527Z,7.47
2023-01-20T14:19:29.666Z,7.50
2023-01-20T14:21:59.200Z,7.35
2023-01-20T14:24:35.753Z,8.40
2023-01-20T14:27:14.046Z,7.30
2023-01-20T14:29:40.805Z,8.38
2023-01-20T14:32:33.749Z,7.70
2023-01-20T14:35:01.843Z,7.80
2023-01-20T14:37:34.607Z,9.05
2023-01-20T14:40:08.240Z,8.20
2023-01-20T14:42:36.122Z,7.18
2023-01-20T14:45:02.822Z,8.10
2023-01-20T14:47:32.120Z,8.27
2023-01-20T14:49:58.978Z,7.38
2023-01-20T14:52:30.610Z,7.88
2023-01-20T14:54:57.830Z,8.05
2023-01-20T14:57:40.771Z,8.10
2023-01-20T15:00:21.460Z,7.90
2023-01-20T15:03:09.957Z,7.85
2023-01-20T15:05:42.652Z,7.60
2023-01-20T15:08:14.270Z,7.75
2023-01-20T15:10:42.563Z,8.50
2023-01-20T15:13:31.107Z,7.95
2023-01-20T15:16:13.719Z,7.70
2023-01-20T15:18:40.484Z,8.60
2023-01-20T15:21:27.116Z,8.18
2023-01-20T15:23:54.190Z,8.18
2023-01-20T15:26:30.107Z,8.45
2023-01-20T15:28:58.018Z,7.90
2023-01-20T15:31:25.215Z,7.72
2023-01-20T15:33:51.879Z,7.65
2023-01-20T15:36:27.613Z,7.70
2023-01-20T15:38:54.814Z,7.75
2023-01-20T15:41:21.952Z,7.82
2023-01-20T15:43:49.646Z,8.68
2023-01-20T15:46:17.707Z,8.23
2023-01-20T15:48:45.265Z,7.63
2023-01-20T15:51:17.481Z,7.85
2023-01-20T15:53:45.382Z,8.20
2023-01-20T15:56:28.668Z,7.65
2023-01-20T15:58:56.519Z,8.75
2023-01-20T16:01:26.131Z,8.23
2023-01-20T16:03:54.834Z,7.63
2023-01-20T16:06:26.639Z,7.75
2023-01-20T16:08:53.297Z,7.95
2023-01-20T16:11:20.279Z,8.32
2023-01-20T16:13:46.929Z,8.65
2023-01-20T16:16:19.256Z,7.70
2023-01-20T16:18:46.738Z,8.50
2023-01-20T16:21:15.036Z,8.93
2023-01-20T16:23:42.293Z,8.25
2023-01-20T16:26:22.421Z,7.88
2023-01-20T16:28:54.004Z,7.90
2023-01-20T16:31:22.017Z,8.32
2023-01-20T16:33:48.876Z,8.50
2023-01-20T16:36:17.554Z,8.82
2023-01-20T16:38:44.909Z,8.27
2023-01-20T16:41:21.480Z,8.80
2023-01-20T16:43:49.093Z,8.68
2023-01-20T16:46:18.493Z,8.50
2023-01-20T16:48:45.724Z,8.32
2023-01-20T16:51:17.428Z,8.63
2023-01-20T16:53:44.385Z,8.50
2023-01-20T16:56:19.194Z,8.85
2023-01-20T16:58:50.159Z,7.85
2023-01-20T17:01:21.081Z,7.93
2023-01-20T17:03:50.297Z,7.88
2023-01-20T17:06:19.057Z,7.97
2023-01-20T17:08:51.233Z,10.25
2023-01-20T17:11:18.471Z,10.48
2023-01-20T17:13:45.248Z,10.30
2023-01-20T17:16:12.131Z,10.18
2023-01-20T17:18:44.577Z,11.48
2023-01-20T17:21:12.554Z,10.60
2023-01-20T17:23:40.016Z,10.50
2023-01-20T17:26:08.071Z,10.57
2023-01-20T17:28:35.376Z,10.25
2023-01-20T17:31:03.658Z,10.77
2023-01-20T17:33:31.027Z,10.65
2023-01-20T17:35:59.559Z,12.68
2023-01-20T17:38:28.185Z,13.65
2023-01-20T17:40:59.435Z,11.85
2023-01-20T17:43:26.049Z,11.65
2023-01-20T17:45:52.688Z,12.07
2023-01-20T17:48:19.471Z,11.35
2023-01-20T17:50:46.085Z,12.27
2023-01-20T17:53:12.859Z,11.80
2023-01-20T17:55:39.514Z,12.88
2023-01-20T17:58:06.129Z,11.55
2023-01-20T18:00:32.768Z,12.40
2023-01-20T18:02:59.377Z,12.90
2023-01-20T18:05:27.557Z,12.07
2023-01-20T18:07:54.237Z,12.90
2023-01-20T18:10:20.868Z,13.20
2023-01-20T18:12:47.621Z,11.45
2023-01-20T18:15:14.306Z,12.00
2023-01-20T18:17:43.288Z,13.00
2023-01-20T18:20:11.101Z,13.02
2023-01-20T18:22:37.763Z,12.82
2023-01-20T18:25:04.577Z,12.80
2023-01-20T18:27:31.201Z,11.20
2023-01-20T18:29:57.827Z,12.15
2023-01-20T18:32:24.738Z,12.57
2023-01-20T18:34:51.384Z,13.02
2023-01-20T18:37:18.002Z,13.27
2023-01-20T18:39:44.630Z,12.75
2023-01-20T18:42:11.465Z,16.75
2023-01-20T18:44:38.101Z,17.50
2023-01-20T18:47:05.066Z,12.98
2023-01-20T18:49:31.722Z,12.40
2023-01-20T18:51:58.428Z,13.45
2023-01-20T18:54:26.216Z,12.57
2023-01-20T18:56:52.863Z,11.40
2023-01-20T18:59:19.874Z,12.10
2023-01-20T19:01:46.607Z,12.90
2023-01-20T19:04:13.652Z,12.20
2023-01-20T19:06:42.984Z,11.85
2023-01-20T19:09:10.439Z,11.65
2023-01-20T19:11:40.194Z,11.88
2023-01-20T19:14:10.911Z,12.13
2023-01-20T19:16:39.082Z,11.38
2023-01-20T19:19:07.220Z,11.70
2023-01-20T19:21:36.134Z,11.13
2023-01-20T19:24:06.834Z,11.52
2023-01-20T19:26:35.939Z,11.23
2023-01-20T19:29:07.897Z,11.35
2023-01-20T19:31:37.880Z,11.35
2023-01-20T19:34:05.875Z,10.85
2023-01-20T19:36:33.338Z,10.88
2023-01-20T19:39:00.938Z,11.82
2023-01-20T19:41:29.621Z,10.50
2023-01-20T19:43:58.348Z,11.98
2023-01-20T19:46:27.633Z,11.55
2023-01-20T19:48:57.145Z,10.57
2023-01-20T19:51:24.379Z,11.20
2023-01-20T19:53:57.351Z,13.63
2023-01-20T19:56:25.530Z,11.50
2023-01-20T19:58:53.736Z,11.90
2023-01-20T20:01:23.779Z,11.75
2023-01-20T20:03:51.971Z,11.63
2023-01-20T20:06:36.816Z,12.07
2023-01-20T20:09:10.811Z,11.70
2023-01-20T20:11:38.656Z,10.35
2023-01-20T20:14:07.405Z,12.27
2023-01-20T20:16:36.442Z,10.98
2023-01-20T20:19:04.212Z,11.52
2023-01-20T20:21:30.955Z,11.85
2023-01-20T20:23:59.202Z,11.82
2023-01-20T20:26:31.240Z,12.30
2023-01-20T20:29:02.224Z,10.88
2023-01-20T20:31:29.528Z,11.02
2023-01-20T20:34:00.912Z,11.45
2023-01-20T20:36:30.809Z,12.13
2023-01-20T20:38:58.815Z,10.93
2023-01-20T20:41:28.723Z,11.30
2023-01-20T20:43:56.166Z,10.60
2023-01-20T20:46:24.067Z,10.15
2023-01-20T20:48:56.956Z,10.55
2023-01-20T20:51:24.063Z,9.82
2023-01-20T20:53:54.695Z,10.15
2023-01-20T20:56:21.932Z,9.48
2023-01-20T20:59:00.448Z,9.45
2023-01-20T21:01:30.579Z,8.45
2023-01-20T21:03:57.980Z,10.05
2023-01-20T21:06:25.514Z,10.23
2023-01-20T21:08:53.030Z,10.55
2023-01-20T21:11:23.960Z,9.70
2023-01-20T21:13:50.740Z,10.15
2023-01-20T21:16:21.742Z,10.63
2023-01-20T21:18:49.320Z,10.85
2023-01-20T21:21:17.057Z,9.45
2023-01-20T21:23:52.379Z,9.85
2023-01-20T21:26:19.762Z,9.90
2023-01-20T21:28:49.112Z,10.38
2023-01-20T21:31:20.695Z,10.18
2023-01-20T21:33:50.934Z,9.60
2023-01-20T21:36:17.541Z,9.45
2023-01-20T21:38:46.351Z,10.05
2023-01-20T21:41:14.875Z,10.00
2023-01-20T21:44:01.660Z,10.45
2023-01-20T21:46:40.105Z,11.57
2023-01-20T21:49:28.708Z,9.60
2023-01-20T21:52:15.209Z,9.60
2023-01-20T21:54:42.218Z,10.15
2023-01-20T21:57:09.004Z,10.82
2023-01-20T21:59:35.724Z,11.80
2023-01-20T22:02:02.512Z,11.90
2023-01-20T22:04:29.195Z,11.60
2023-01-20T22:06:55.877Z,12.02
2023-01-20T22:09:22.727Z,10.85
2023-01-20T22:11:49.971Z,11.48
2023-01-20T22:14:16.685Z,10.90
2023-01-20T22:16:43.391Z,11.63
2023-01-20T22:19:13.375Z,10.43
2023-01-20T22:21:40.252Z,12.73
2023-01-20T22:24:07.556Z,11.15
2023-01-20T22:26:34.208Z,12.05
2023-01-20T22:29:01.000Z,11.57
2023-01-20T22:31:28.569Z,10.95
2023-01-20T22:33:57.011Z,12.15
2023-01-20T22:36:24.843Z,11.90
2023-01-20T22:38:53.245Z,12.40
2023-01-20T22:41:20.968Z,11.93
2023-01-20T22:43:48.124Z,12.00
2023-01-20T22:46:17.049Z,13.10
2023-01-20T22:48:44.608Z,12.65
2023-01-20T22:51:16.847Z,12.60
2023-01-20T22:53:43.710Z,13.75
2023-01-20T22:56:14.050Z,12.75
2023-01-20T22:58:41.706Z,14.27
2023-01-20T23:01:13.279Z,13.60
2023-01-20T23:03:40.280Z,14.50
2023-01-20T23:06:07.645Z,14.23
2023-01-20T23:08:34.672Z,14.20
2023-01-20T23:11:05.031Z,14.15
2023-01-20T23:13:32.025Z,15.95
2023-01-20T23:15:58.788Z,16.35
2023-01-20T23:18:25.687Z,14.70
2023-01-20T23:20:53.945Z,15.95
2023-01-20T23:23:21.569Z,15.82
2023-01-20T23:25:48.401Z,15.85
2023-01-20T23:28:16.036Z,16.05
2023-01-20T23:30:43.357Z,15.90
2023-01-20T23:33:10.356Z,15.77
2023-01-20T23:35:38.936Z,16.50
2023-01-20T23:38:06.883Z,17.00
2023-01-20T23:40:34.554Z,17.23
2023-01-20T23:43:01.519Z,17.70
2023-01-20T23:45:28.809Z,16.48
2023-01-20T23:47:55.736Z,16.15
2023-01-20T23:50:22.424Z,15.95
2023-01-20T23:52:49.155Z,16.42
2023-01-20T23:55:15.858Z,17.33
2023-01-20T23:57:42.494Z,16.85
